createdAt,value
2016-06-10T00:00:00.221Z,1010.68
2016-06-10T00:01:00.224Z,1010.65
2016-06-10T00:02:00.227Z,1010.64
2016-06-10T00:03:00.245Z,1010.61
2016-06-10T00:04:00.248Z,1010.61
2016-06-10T00:05:00.251Z,1010.61
2016-06-10T00:06:00.271Z,1010.62
2016-06-10T00:07:00.273Z,1010.6
2016-06-10T00:08:00.277Z,1010.59
2016-06-10T00:09:00.280Z,1010.55
2016-06-10T00:10:00.298Z,1010.59
2016-06-10T00:11:00.301Z,1010.57
2016-06-10T00:12:00.304Z,1010.57
2016-06-10T00:13:00.323Z,1010.56
2016-06-10T00:14:00.326Z,1010.55
2016-06-10T00:15:00.345Z,1010.53
2016-06-10T00:16:00.348Z,1010.53
2016-06-10T00:17:00.351Z,1010.54
2016-06-10T00:18:00.355Z,1010.54
2016-06-10T00:19:00.358Z,1010.54
2016-06-10T00:20:00.375Z,1010.54
2016-06-10T00:21:00.378Z,1010.51
2016-06-10T00:22:00.382Z,1010.49
2016-06-10T00:23:00.401Z,1010.48
2016-06-10T00:24:00.950Z,1010.5
2016-06-10T00:25:00.485Z,1010.47
2016-06-10T00:26:00.410Z,1010.47
2016-06-10T00:27:00.429Z,1010.42
2016-06-10T00:28:00.432Z,1010.44
2016-06-10T00:29:00.435Z,1010.42
2016-06-10T00:30:00.453Z,1010.44
2016-06-10T00:31:00.456Z,1010.46
2016-06-10T00:32:00.459Z,1010.38
2016-06-10T00:33:00.462Z,1010.38
2016-06-10T00:34:00.481Z,1010.41
2016-06-10T00:35:00.485Z,1010.37
2016-06-10T00:36:00.488Z,1010.38
2016-06-10T00:37:00.506Z,1010.37
2016-06-10T00:38:00.509Z,1010.38
2016-06-10T00:39:00.512Z,1010.34
2016-06-10T00:40:00.656Z,1010.35
2016-06-10T00:41:00.534Z,1010.33
2016-06-10T00:42:00.537Z,1010.33
2016-06-10T00:43:00.540Z,1010.31
2016-06-10T00:44:00.560Z,1010.32
2016-06-10T00:45:00.562Z,1010.27
2016-06-10T00:46:00.565Z,1010.27
2016-06-10T00:47:00.569Z,1010.23
2016-06-10T00:48:00.587Z,1010.26
2016-06-10T00:49:00.622Z,1010.27
2016-06-10T00:50:00.592Z,1010.28
2016-06-10T00:51:00.612Z,1010.24
2016-06-10T00:52:00.615Z,1010.26
2016-06-10T00:53:00.618Z,1010.24
2016-06-10T00:54:00.637Z,1010.2
2016-06-10T00:55:00.640Z,1010.18
2016-06-10T00:56:00.643Z,1010.18
2016-06-10T00:57:00.661Z,1010.19
2016-06-10T00:58:00.664Z,1010.18
2016-06-10T00:59:00.667Z,1010.16
2016-06-10T01:00:00.671Z,1010.14
2016-06-10T01:01:00.674Z,1010.17
2016-06-10T01:02:00.693Z,1010.13
2016-06-10T01:03:00.696Z,1010.17
2016-06-10T01:04:00.699Z,1010.16
2016-06-10T01:05:00.717Z,1010.18
2016-06-10T01:06:00.720Z,1010.17
2016-06-10T01:07:00.723Z,1010.15
2016-06-10T01:08:00.742Z,1010.14
2016-06-10T01:09:00.745Z,1010.14
2016-06-10T01:10:00.748Z,1010.09
2016-06-10T01:11:00.752Z,1010.12
2016-06-10T01:12:00.771Z,1010.09
2016-06-10T01:13:00.774Z,1010.12
2016-06-10T01:14:00.777Z,1010.08
2016-06-10T01:15:00.795Z,1010.06
2016-06-10T01:16:00.798Z,1010.05
2016-06-10T01:17:00.801Z,1010.08
2016-06-10T01:18:00.804Z,1010.04
2016-06-10T01:19:00.823Z,1010.01
2016-06-10T01:20:00.826Z,1010.01
2016-06-10T01:21:00.830Z,1010.03
2016-06-10T01:22:00.832Z,1010.03
2016-06-10T01:23:00.851Z,1010.08
2016-06-10T01:24:00.854Z,1010.07
2016-06-10T01:25:00.858Z,1010.11
2016-06-10T01:26:00.860Z,1010.07
2016-06-10T01:27:00.879Z,1010.09
2016-06-10T01:28:00.881Z,1010.05
2016-06-10T01:29:00.885Z,1010.06
2016-06-10T01:30:00.903Z,1010.05
2016-06-10T01:31:00.907Z,1010.03
2016-06-10T01:32:00.909Z,1010.05
2016-06-10T01:33:00.928Z,1010.03
2016-06-10T01:34:00.931Z,1010.01
2016-06-10T01:35:00.934Z,1010.02
2016-06-10T01:36:00.953Z,1010.01
2016-06-10T01:37:00.957Z,1010.01
2016-06-10T01:38:00.975Z,1009.98
2016-06-10T01:39:00.962Z,1010
2016-06-10T01:40:00.982Z,1009.96
2016-06-10T01:41:00.985Z,1009.98
2016-06-10T01:42:00.987Z,1009.99
2016-06-10T01:43:00.991Z,1009.95
2016-06-10T01:44:01.009Z,1009.99
2016-06-10T01:45:01.012Z,1009.93
2016-06-10T01:46:01.015Z,1009.95
2016-06-10T01:47:01.034Z,1009.95
2016-06-10T01:48:01.037Z,1009.98
2016-06-10T01:49:01.040Z,1009.95
2016-06-10T01:50:01.059Z,1009.9
2016-06-10T01:51:01.062Z,1009.94
2016-06-10T01:52:01.066Z,1009.94
2016-06-10T01:53:01.069Z,1009.91
2016-06-10T01:54:01.086Z,1009.9
2016-06-10T01:55:01.090Z,1009.9
2016-06-10T01:56:01.093Z,1009.92
2016-06-10T01:57:01.095Z,1009.92
2016-06-10T01:58:01.115Z,1009.92
2016-06-10T01:59:01.118Z,1009.89
2016-06-10T02:00:01.121Z,1009.91
2016-06-10T02:01:01.124Z,1009.87
2016-06-10T02:02:01.142Z,1009.84
2016-06-10T02:03:01.145Z,1009.8
2016-06-10T02:04:01.148Z,1009.81
2016-06-10T02:05:01.167Z,1009.75
2016-06-10T02:06:01.171Z,1009.72
2016-06-10T02:07:01.173Z,1009.73
2016-06-10T02:08:01.193Z,1009.68
2016-06-10T02:09:01.196Z,1009.71
2016-06-10T02:10:01.198Z,1009.68
2016-06-10T02:11:01.592Z,1009.67
2016-06-10T02:12:01.219Z,1009.65
2016-06-10T02:13:01.239Z,1009.65
2016-06-10T02:14:01.242Z,1009.65
2016-06-10T02:15:01.229Z,1009.64
2016-06-10T02:16:01.248Z,1009.67
2016-06-10T02:17:01.251Z,1009.66
2016-06-10T02:18:01.271Z,1009.65
2016-06-10T02:19:01.273Z,1009.66
2016-06-10T02:20:01.276Z,1009.64
2016-06-10T02:21:01.279Z,1009.66
2016-06-10T02:22:01.297Z,1009.68
2016-06-10T02:23:01.301Z,1009.65
2016-06-10T02:24:01.303Z,1009.66
2016-06-10T02:25:01.307Z,1009.66
2016-06-10T02:26:01.591Z,1009.68
2016-06-10T02:27:01.329Z,1009.72
2016-06-10T02:28:01.332Z,1009.75
2016-06-10T02:29:01.335Z,1009.71
2016-06-10T02:30:01.353Z,1009.7
2016-06-10T02:31:01.357Z,1009.68
2016-06-10T02:32:01.359Z,1009.66
2016-06-10T02:33:01.378Z,1009.62
2016-06-10T02:34:01.382Z,1009.57
2016-06-10T02:35:01.385Z,1009.53
2016-06-10T02:36:01.387Z,1009.57
2016-06-10T02:37:01.406Z,1009.5
2016-06-10T02:38:01.426Z,1009.53
2016-06-10T02:39:01.467Z,1009.54
2016-06-10T02:40:01.507Z,1009.54
2016-06-10T02:41:01.563Z,1009.55
2016-06-10T02:42:01.651Z,1009.56
2016-06-10T02:43:01.635Z,1009.52
2016-06-10T02:44:01.667Z,1009.54
2016-06-10T02:45:01.684Z,1009.52
2016-06-10T02:46:01.701Z,1009.53
2016-06-10T02:47:01.734Z,1009.56
2016-06-10T02:48:01.746Z,1009.58
2016-06-10T02:49:01.754Z,1009.58
2016-06-10T02:50:01.763Z,1009.55
2016-06-10T02:51:01.785Z,1009.53
2016-06-10T02:52:01.793Z,1009.52
2016-06-10T02:53:01.799Z,1009.55
2016-06-10T02:54:01.820Z,1009.53
2016-06-10T02:55:01.825Z,1009.55
2016-06-10T02:56:02.470Z,1009.56
2016-06-10T02:57:01.835Z,1009.51
2016-06-10T02:58:01.855Z,1009.52
2016-06-10T02:59:01.858Z,1009.5
2016-06-10T03:00:01.878Z,1009.49
2016-06-10T03:01:01.882Z,1009.46
2016-06-10T03:02:01.886Z,1009.44
2016-06-10T03:03:01.890Z,1009.46
2016-06-10T03:04:01.892Z,1009.45
2016-06-10T03:05:01.911Z,1009.46
2016-06-10T03:06:01.915Z,1009.5
2016-06-10T03:07:01.917Z,1009.51
2016-06-10T03:08:01.921Z,1009.49
2016-06-10T03:09:01.939Z,1009.5
2016-06-10T03:10:01.942Z,1009.49
2016-06-10T03:11:01.945Z,1009.46
2016-06-10T03:12:01.964Z,1009.46
2016-06-10T03:13:01.967Z,1009.47
2016-06-10T03:14:01.970Z,1009.43
2016-06-10T03:15:01.974Z,1009.44
2016-06-10T03:16:01.992Z,1009.42
2016-06-10T03:17:01.995Z,1009.4
2016-06-10T03:18:02.014Z,1009.37
2016-06-10T03:19:02.001Z,1009.32
2016-06-10T03:20:02.019Z,1009.29
2016-06-10T03:21:02.022Z,1009.28
2016-06-10T03:22:02.026Z,1009.31
2016-06-10T03:23:02.045Z,1009.34
2016-06-10T03:24:02.047Z,1009.36
2016-06-10T03:25:02.051Z,1009.38
2016-06-10T03:26:02.132Z,1009.4
2016-06-10T03:27:02.072Z,1009.43
2016-06-10T03:28:02.075Z,1009.46
2016-06-10T03:29:02.078Z,1009.48
2016-06-10T03:30:02.097Z,1009.43
2016-06-10T03:31:02.101Z,1009.44
2016-06-10T03:32:02.103Z,1009.42
2016-06-10T03:33:02.122Z,1009.4
2016-06-10T03:34:02.126Z,1009.38
2016-06-10T03:35:02.128Z,1009.35
2016-06-10T03:36:02.131Z,1009.33
2016-06-10T03:37:02.135Z,1009.34
2016-06-10T03:38:02.169Z,1009.36
2016-06-10T03:39:02.156Z,1009.32
2016-06-10T03:40:02.159Z,1009.38
2016-06-10T03:41:02.850Z,1009.38
2016-06-10T03:42:02.181Z,1009.4
2016-06-10T03:43:02.185Z,1009.43
2016-06-10T03:44:02.203Z,1009.44
2016-06-10T03:45:02.207Z,1009.42
2016-06-10T03:46:02.210Z,1009.41
2016-06-10T03:47:02.212Z,1009.41
2016-06-10T03:48:02.231Z,1009.38
2016-06-10T03:49:02.234Z,1009.38
2016-06-10T03:50:02.237Z,1009.4
2016-06-10T03:51:02.240Z,1009.42
2016-06-10T03:52:02.259Z,1009.42
2016-06-10T03:53:02.262Z,1009.47
2016-06-10T03:54:02.265Z,1009.47
2016-06-10T03:55:02.283Z,1009.44
2016-06-10T03:56:02.958Z,1009.4
2016-06-10T03:57:02.290Z,1009.4
2016-06-10T03:58:02.293Z,1009.4
2016-06-10T03:59:02.312Z,1009.39
2016-06-10T04:00:02.314Z,1009.4
2016-06-10T04:01:02.318Z,1009.39
2016-06-10T04:02:02.337Z,1009.38
2016-06-10T04:03:02.339Z,1009.35
2016-06-10T04:04:02.343Z,1009.34
2016-06-10T04:05:02.346Z,1009.35
2016-06-10T04:06:02.364Z,1009.29
2016-06-10T04:07:02.367Z,1009.3
2016-06-10T04:08:02.370Z,1009.28
2016-06-10T04:09:02.389Z,1009.27
2016-06-10T04:10:02.392Z,1009.27
2016-06-10T04:11:02.395Z,1009.28
2016-06-10T04:12:02.398Z,1009.31
2016-06-10T04:13:02.418Z,1009.31
2016-06-10T04:14:02.421Z,1009.28
2016-06-10T04:15:02.423Z,1009.27
2016-06-10T04:16:02.427Z,1009.27
2016-06-10T04:17:02.444Z,1009.28
2016-06-10T04:18:02.448Z,1009.27
2016-06-10T04:19:02.451Z,1009.29
2016-06-10T04:20:02.470Z,1009.32
2016-06-10T04:21:02.473Z,1009.3
2016-06-10T04:22:02.477Z,1009.29
2016-06-10T04:23:02.494Z,1009.3
2016-06-10T04:24:02.498Z,1009.29
2016-06-10T04:25:02.500Z,1009.3
2016-06-10T04:26:02.536Z,1009.26
2016-06-10T04:27:02.507Z,1009.25
2016-06-10T04:28:02.526Z,1009.25
2016-06-10T04:29:02.529Z,1009.27
2016-06-10T04:30:02.532Z,1009.28
2016-06-10T04:31:02.551Z,1009.24
2016-06-10T04:32:02.554Z,1009.31
2016-06-10T04:33:02.557Z,1009.34
2016-06-10T04:34:02.560Z,1009.35
2016-06-10T04:35:02.578Z,1009.34
2016-06-10T04:36:02.581Z,1009.41
2016-06-10T04:37:02.584Z,1009.39
2016-06-10T04:38:02.587Z,1009.41
2016-06-10T04:39:02.606Z,1009.4
2016-06-10T04:40:02.609Z,1009.43
2016-06-10T04:41:02.612Z,1009.43
2016-06-10T04:42:02.632Z,1009.45
2016-06-10T04:43:02.649Z,1009.43
2016-06-10T04:44:02.638Z,1009.46
2016-06-10T04:45:02.641Z,1009.41
2016-06-10T04:46:02.659Z,1009.44
2016-06-10T04:47:02.662Z,1009.45
2016-06-10T04:48:02.665Z,1009.44
2016-06-10T04:49:02.684Z,1009.41
2016-06-10T04:50:02.687Z,1009.44
2016-06-10T04:51:02.690Z,1009.44
2016-06-10T04:52:02.693Z,1009.42
2016-06-10T04:53:02.712Z,1009.43
2016-06-10T04:54:02.714Z,1009.45
2016-06-10T04:55:02.718Z,1009.42
2016-06-10T04:56:02.720Z,1009.4
2016-06-10T04:57:02.740Z,1009.42
2016-06-10T04:58:02.743Z,1009.47
2016-06-10T04:59:02.746Z,1009.36
2016-06-10T05:00:02.765Z,1009.37
2016-06-10T05:01:02.768Z,1009.31
2016-06-10T05:02:02.771Z,1009.3
2016-06-10T05:03:02.775Z,1009.32
2016-06-10T05:04:02.792Z,1009.33
2016-06-10T05:05:02.795Z,1009.31
2016-06-10T05:06:02.798Z,1009.3
2016-06-10T05:07:02.802Z,1009.26
2016-06-10T05:08:02.820Z,1009.22
2016-06-10T05:09:02.823Z,1009.19
2016-06-10T05:10:02.827Z,1009.18
2016-06-10T05:11:03.236Z,1009.2
2016-06-10T05:12:02.848Z,1009.17
2016-06-10T05:13:02.852Z,1009.18
2016-06-10T05:14:02.855Z,1009.19
2016-06-10T05:15:02.873Z,1009.2
2016-06-10T05:16:02.892Z,1009.2
2016-06-10T05:17:02.879Z,1009.13
2016-06-10T05:18:02.898Z,1009.17
2016-06-10T05:19:02.901Z,1009.16
2016-06-10T05:20:02.905Z,1009.21
2016-06-10T05:21:02.908Z,1009.2
2016-06-10T05:22:02.925Z,1009.27
2016-06-10T05:23:02.929Z,1009.25
2016-06-10T05:24:02.932Z,1009.32
2016-06-10T05:25:03.029Z,1009.26
2016-06-10T05:26:02.954Z,1009.29
2016-06-10T05:27:02.957Z,1009.25
2016-06-10T05:28:02.960Z,1009.25
2016-06-10T05:29:02.979Z,1009.24
2016-06-10T05:30:02.982Z,1009.22
2016-06-10T05:31:02.985Z,1009.18
2016-06-10T05:32:03.003Z,1009.21
2016-06-10T05:33:03.006Z,1009.18
2016-06-10T05:34:03.009Z,1009.15
2016-06-10T05:35:03.013Z,1009.15
2016-06-10T05:36:03.016Z,1009.12
2016-06-10T05:37:03.035Z,1009.14
2016-06-10T05:38:03.038Z,1009.13
2016-06-10T05:39:03.041Z,1009.14
2016-06-10T05:40:03.060Z,1009.17
2016-06-10T05:41:03.078Z,1009.18
2016-06-10T05:42:03.316Z,1009.19
2016-06-10T05:43:03.100Z,1009.17
2016-06-10T05:44:03.088Z,1009.2
2016-06-10T05:45:03.090Z,1009.14
2016-06-10T05:46:03.140Z,1009.14
2016-06-10T05:47:03.112Z,1009.11
2016-06-10T05:48:03.115Z,1009.19
2016-06-10T05:49:03.119Z,1009.17
2016-06-10T05:50:03.137Z,1009.21
2016-06-10T05:51:03.140Z,1009.25
2016-06-10T05:52:03.142Z,1009.27
2016-06-10T05:53:03.146Z,1009.29
2016-06-10T05:54:03.165Z,1009.29
2016-06-10T05:55:03.168Z,1009.28
2016-06-10T05:56:03.171Z,1009.22
2016-06-10T05:57:03.799Z,1009.2
2016-06-10T05:58:03.193Z,1009.23
2016-06-10T05:59:03.197Z,1009.25
2016-06-10T06:00:03.293Z,1009.26
2016-06-10T06:01:03.217Z,1009.3
2016-06-10T06:02:03.845Z,1009.31
2016-06-10T06:03:03.473Z,1009.36
2016-06-10T06:04:03.227Z,1009.4
2016-06-10T06:05:03.262Z,1009.35
2016-06-10T06:06:03.342Z,1009.32
2016-06-10T06:07:03.283Z,1009.27
2016-06-10T06:08:03.567Z,1009.23
2016-06-10T06:09:03.305Z,1009.22
2016-06-10T06:10:03.308Z,1009.21
2016-06-10T06:11:03.889Z,1009.22
2016-06-10T06:12:03.783Z,1009.19
2016-06-10T06:13:03.379Z,1009.14
2016-06-10T06:14:03.305Z,1009.16
2016-06-10T06:15:03.323Z,1009.14
2016-06-10T06:16:03.327Z,1009.15
2016-06-10T06:17:03.330Z,1009.19
2016-06-10T06:18:03.348Z,1009.21
2016-06-10T06:19:03.351Z,1009.24
2016-06-10T06:20:03.354Z,1009.26
2016-06-10T06:21:03.357Z,1009.22
2016-06-10T06:22:03.782Z,1009.25
2016-06-10T06:23:03.785Z,1009.19
2016-06-10T06:24:03.882Z,1009.24
2016-06-10T06:25:03.838Z,1009.25
2016-06-10T06:26:04.372Z,1009.29
2016-06-10T06:27:03.672Z,1009.36
2016-06-10T06:28:03.848Z,1009.37
2016-06-10T06:29:03.695Z,1009.41
2016-06-10T06:30:03.509Z,1009.37
2016-06-10T06:31:03.731Z,1009.35
2016-06-10T06:32:03.782Z,1009.35
2016-06-10T06:33:03.785Z,1009.37
2016-06-10T06:34:03.601Z,1009.38
2016-06-10T06:35:03.744Z,1009.35
2016-06-10T06:36:03.482Z,1009.33
2016-06-10T06:37:03.594Z,1009.25
2016-06-10T06:38:04.113Z,1009.23
2016-06-10T06:39:03.834Z,1009.17
2016-06-10T06:40:03.822Z,1009.12
2016-06-10T06:41:03.623Z,1009.19
2016-06-10T06:42:04.406Z,1009.16
2016-06-10T06:43:03.878Z,1009.21
2016-06-10T06:44:03.569Z,1009.2
2016-06-10T06:45:03.588Z,1009.17
2016-06-10T06:46:03.981Z,1009.18
2016-06-10T06:47:04.266Z,1009.18
2016-06-10T06:48:03.565Z,1009.19
2016-06-10T06:49:03.584Z,1009.19
2016-06-10T06:50:03.587Z,1009.21
2016-06-10T06:51:03.590Z,1009.18
2016-06-10T06:52:03.860Z,1009.17
2016-06-10T06:53:05.127Z,1009.15
2016-06-10T06:54:04.287Z,1009.19
2016-06-10T06:55:03.836Z,1009.19
2016-06-10T06:56:03.621Z,1009.15
2016-06-10T06:57:03.890Z,1009.12
2016-06-10T06:58:03.643Z,1009.1
2016-06-10T06:59:03.709Z,1009.12
2016-06-10T07:00:04.305Z,1009.07
2016-06-10T07:01:03.668Z,1009.05
2016-06-10T07:02:03.968Z,1009.03
2016-06-10T07:03:03.736Z,1008.99
2016-06-10T07:04:03.958Z,1008.95
2016-06-10T07:05:03.697Z,1008.9
2016-06-10T07:06:03.792Z,1008.92
2016-06-10T07:07:03.811Z,1008.95
2016-06-10T07:08:03.752Z,1008.96
2016-06-10T07:09:03.974Z,1008.96
2016-06-10T07:10:03.993Z,1008.91
2016-06-10T07:11:03.776Z,1008.89
2016-06-10T07:12:03.858Z,1008.87
2016-06-10T07:13:03.752Z,1008.9
2016-06-10T07:14:04.067Z,1008.87
2016-06-10T07:15:04.508Z,1008.87
2016-06-10T07:16:03.792Z,1008.81
2016-06-10T07:17:04.045Z,1008.77
2016-06-10T07:18:03.861Z,1008.73
2016-06-10T07:19:03.817Z,1008.71
2016-06-10T07:20:03.820Z,1008.75
2016-06-10T07:21:03.824Z,1008.77
2016-06-10T07:22:04.029Z,1008.8
2016-06-10T07:23:03.844Z,1008.86
2016-06-10T07:24:04.238Z,1008.84
2016-06-10T07:25:03.851Z,1008.87
2016-06-10T07:26:04.292Z,1008.92
2016-06-10T07:27:03.967Z,1008.95
2016-06-10T07:28:03.876Z,1008.98
2016-06-10T07:29:04.145Z,1008.99
2016-06-10T07:30:03.898Z,1008.95
2016-06-10T07:31:03.902Z,1009.01
2016-06-10T07:32:03.904Z,1008.96
2016-06-10T07:33:03.907Z,1008.98
2016-06-10T07:34:04.004Z,1008.96
2016-06-10T07:35:03.928Z,1008.98
2016-06-10T07:36:03.931Z,1008.98
2016-06-10T07:37:03.950Z,1008.96
2016-06-10T07:38:04.360Z,1008.98
2016-06-10T07:39:04.988Z,1008.98
2016-06-10T07:40:04.632Z,1009.03
2016-06-10T07:41:04.400Z,1009.01
2016-06-10T07:42:04.653Z,1009.02
2016-06-10T07:43:04.000Z,1009.01
2016-06-10T07:44:04.004Z,1008.98
2016-06-10T07:45:04.162Z,1008.97
2016-06-10T07:46:04.025Z,1008.9
2016-06-10T07:47:04.028Z,1008.93
2016-06-10T07:48:04.031Z,1008.91
2016-06-10T07:49:04.113Z,1008.92
2016-06-10T07:50:04.052Z,1008.94
2016-06-10T07:51:04.572Z,1008.89
2016-06-10T07:52:04.058Z,1008.86
2016-06-10T07:53:04.077Z,1008.83
2016-06-10T07:54:04.081Z,1008.85
2016-06-10T07:55:04.100Z,1008.82
2016-06-10T07:56:04.103Z,1008.86
2016-06-10T07:57:04.121Z,1008.83
2016-06-10T07:58:04.110Z,1008.81
2016-06-10T07:59:04.190Z,1008.75
2016-06-10T08:00:04.130Z,1008.74
2016-06-10T08:01:04.134Z,1008.73
2016-06-10T08:02:04.153Z,1008.76
2016-06-10T08:03:04.155Z,1008.77
2016-06-10T08:04:04.159Z,1008.82
2016-06-10T08:05:04.162Z,1008.8
2016-06-10T08:06:04.180Z,1008.8
2016-06-10T08:07:04.183Z,1008.76
2016-06-10T08:08:04.186Z,1008.74
2016-06-10T08:09:04.205Z,1008.72
2016-06-10T08:10:04.974Z,1008.74
2016-06-10T08:11:04.242Z,1008.76
2016-06-10T08:12:04.230Z,1008.76
2016-06-10T08:13:04.234Z,1008.74
2016-06-10T08:14:04.252Z,1008.77
2016-06-10T08:15:04.254Z,1008.79
2016-06-10T08:16:04.258Z,1008.83
2016-06-10T08:17:04.277Z,1008.8
2016-06-10T08:18:04.310Z,1008.8
2016-06-10T08:19:04.283Z,1008.83
2016-06-10T08:20:04.302Z,1008.8
2016-06-10T08:21:04.305Z,1008.84
2016-06-10T08:22:04.308Z,1008.79
2016-06-10T08:23:04.311Z,1008.76
2016-06-10T08:24:04.782Z,1008.75
2016-06-10T08:25:05.301Z,1008.77
2016-06-10T08:26:13.429Z,1008.78
2016-06-10T08:27:04.354Z,1008.75
2016-06-10T08:28:04.357Z,1008.74
2016-06-10T08:29:04.360Z,1008.7
2016-06-10T08:30:04.378Z,1008.67
2016-06-10T08:31:04.381Z,1008.71
2016-06-10T08:32:04.385Z,1008.71
2016-06-10T08:33:04.403Z,1008.73
2016-06-10T08:34:04.406Z,1008.68
2016-06-10T08:35:04.425Z,1008.72
2016-06-10T08:36:04.460Z,1008.72
2016-06-10T08:37:04.432Z,1008.72
2016-06-10T08:38:04.435Z,1008.76
2016-06-10T08:39:04.453Z,1008.74
2016-06-10T08:40:04.534Z,1008.75
2016-06-10T08:41:04.506Z,1008.77
2016-06-10T08:42:05.260Z,1008.79
2016-06-10T08:43:04.528Z,1008.78
2016-06-10T08:44:04.484Z,1008.74
2016-06-10T08:45:04.971Z,1008.78
2016-06-10T08:46:04.771Z,1008.74
2016-06-10T08:47:04.510Z,1008.72
2016-06-10T08:48:04.528Z,1008.68
2016-06-10T08:49:04.531Z,1008.73
2016-06-10T08:50:04.581Z,1008.73
2016-06-10T08:51:04.553Z,1008.73
2016-06-10T08:52:04.587Z,1008.65
2016-06-10T08:53:05.059Z,1008.69
2016-06-10T08:54:05.468Z,1008.65
2016-06-10T08:55:05.050Z,1008.69
2016-06-10T08:56:04.709Z,1008.68
2016-06-10T08:57:04.602Z,1008.62
2016-06-10T08:58:04.934Z,1008.67
2016-06-10T08:59:04.609Z,1008.65
2016-06-10T09:00:04.628Z,1008.57
2016-06-10T09:01:04.865Z,1008.57
2016-06-10T09:02:04.634Z,1008.58
2016-06-10T09:03:04.684Z,1008.6
2016-06-10T09:04:04.655Z,1008.6
2016-06-10T09:05:04.674Z,1008.62
2016-06-10T09:06:04.678Z,1008.59
2016-06-10T09:07:04.681Z,1008.6
2016-06-10T09:08:04.683Z,1008.55
2016-06-10T09:09:04.702Z,1008.52
2016-06-10T09:10:04.705Z,1008.52
2016-06-10T09:11:04.708Z,1008.53
2016-06-10T09:12:04.726Z,1008.48
2016-06-10T09:13:04.729Z,1008.47
2016-06-10T09:14:04.733Z,1008.46
2016-06-10T09:15:04.736Z,1008.48
2016-06-10T09:16:04.754Z,1008.49
2016-06-10T09:17:04.773Z,1008.48
2016-06-10T09:18:05.011Z,1008.48
2016-06-10T09:19:04.779Z,1008.43
2016-06-10T09:20:04.782Z,1008.46
2016-06-10T09:21:05.051Z,1008.46
2016-06-10T09:22:04.804Z,1008.44
2016-06-10T09:23:04.807Z,1008.46
2016-06-10T09:24:04.827Z,1008.5
2016-06-10T09:25:04.830Z,1008.5
2016-06-10T09:26:04.833Z,1008.54
2016-06-10T09:27:04.836Z,1008.56
2016-06-10T09:28:04.870Z,1008.56
2016-06-10T09:29:04.856Z,1008.57
2016-06-10T09:30:04.860Z,1008.56
2016-06-10T09:31:04.879Z,1008.56
2016-06-10T09:32:04.882Z,1008.56
2016-06-10T09:33:04.886Z,1008.55
2016-06-10T09:34:04.904Z,1008.52
2016-06-10T09:35:04.907Z,1008.5
2016-06-10T09:36:04.925Z,1008.5
2016-06-10T09:37:04.928Z,1008.48
2016-06-10T09:38:04.931Z,1008.53
2016-06-10T09:39:04.934Z,1008.53
2016-06-10T09:40:04.954Z,1008.53
2016-06-10T09:41:04.957Z,1008.5
2016-06-10T09:42:04.960Z,1008.49
2016-06-10T09:43:05.025Z,1008.47
2016-06-10T09:44:04.981Z,1008.48
2016-06-10T09:45:04.984Z,1008.48
2016-06-10T09:46:04.987Z,1008.5
2016-06-10T09:47:05.006Z,1008.49
2016-06-10T09:48:05.025Z,1008.49
2016-06-10T09:49:05.029Z,1008.49
2016-06-10T09:50:05.032Z,1008.44
2016-06-10T09:51:05.034Z,1008.47
2016-06-10T09:52:05.053Z,1008.48
2016-06-10T09:53:05.056Z,1008.5
2016-06-10T09:54:05.059Z,1008.46
2016-06-10T09:55:05.078Z,1008.5
2016-06-10T09:56:05.081Z,1008.5
2016-06-10T09:57:05.084Z,1008.53
2016-06-10T09:58:05.087Z,1008.49
2016-06-10T09:59:05.106Z,1008.47
2016-06-10T10:00:05.109Z,1008.49
2016-06-10T10:01:05.112Z,1008.51
2016-06-10T10:02:05.130Z,1008.46
2016-06-10T10:03:05.133Z,1008.5
2016-06-10T10:04:05.137Z,1008.48
2016-06-10T10:05:05.140Z,1008.49
2016-06-10T10:06:05.159Z,1008.49
2016-06-10T10:07:05.162Z,1008.47
2016-06-10T10:08:05.165Z,1008.45
2016-06-10T10:09:05.183Z,1008.42
2016-06-10T10:10:05.186Z,1008.41
2016-06-10T10:11:05.189Z,1008.42
2016-06-10T10:12:05.224Z,1008.4
2016-06-10T10:13:05.399Z,1008.37
2016-06-10T10:14:05.214Z,1008.42
2016-06-10T10:15:05.233Z,1008.37
2016-06-10T10:16:05.237Z,1008.42
2016-06-10T10:17:05.239Z,1008.47
2016-06-10T10:18:05.257Z,1008.42
2016-06-10T10:19:05.260Z,1008.4
2016-06-10T10:20:05.264Z,1008.41
2016-06-10T10:21:05.267Z,1008.37
2016-06-10T10:22:05.285Z,1008.37
2016-06-10T10:23:05.289Z,1008.35
2016-06-10T10:24:05.729Z,1008.35
2016-06-10T10:25:05.311Z,1008.37
2016-06-10T10:26:05.314Z,1008.41
2016-06-10T10:27:05.535Z,1008.47
2016-06-10T10:28:05.616Z,1008.45
2016-06-10T10:29:05.994Z,1008.37
2016-06-10T10:30:05.341Z,1008.4
2016-06-10T10:31:05.438Z,1008.39
2016-06-10T10:32:05.425Z,1008.37
2016-06-10T10:33:05.366Z,1008.32
2016-06-10T10:34:05.682Z,1008.37
2016-06-10T10:35:05.888Z,1008.38
2016-06-10T10:36:05.657Z,1008.4
2016-06-10T10:37:05.394Z,1008.43
2016-06-10T10:38:05.726Z,1008.36
2016-06-10T10:39:05.494Z,1008.37
2016-06-10T10:40:05.888Z,1008.33
2016-06-10T10:41:05.548Z,1008.34
2016-06-10T10:42:05.567Z,1008.32
2016-06-10T10:43:05.945Z,1008.36
2016-06-10T10:44:05.447Z,1008.3
2016-06-10T10:45:05.466Z,1008.34
2016-06-10T10:46:05.501Z,1008.27
2016-06-10T10:47:05.518Z,1008.28
2016-06-10T10:48:05.490Z,1008.26
2016-06-10T10:49:05.493Z,1008.27
2016-06-10T10:50:05.528Z,1008.21
2016-06-10T10:51:05.687Z,1008.2
2016-06-10T10:52:05.753Z,1008.17
2016-06-10T10:53:05.631Z,1008.2
2016-06-10T10:54:05.900Z,1008.19
2016-06-10T10:55:05.653Z,1008.19
2016-06-10T10:56:05.578Z,1008.21
2016-06-10T10:57:05.894Z,1008.22
2016-06-10T10:58:05.850Z,1008.22
2016-06-10T10:59:05.587Z,1008.19
2016-06-10T11:00:06.433Z,1008.2
2016-06-10T11:01:05.733Z,1008.19
2016-06-10T11:02:06.111Z,1008.15
2016-06-10T11:03:06.006Z,1008.16
2016-06-10T11:04:06.259Z,1008.14
2016-06-10T11:05:05.621Z,1008.15
2016-06-10T11:06:05.702Z,1008.13
2016-06-10T11:07:07.283Z,1008.17
2016-06-10T11:08:05.755Z,1008.13
2016-06-10T11:09:06.321Z,1008.11
2016-06-10T11:10:05.714Z,1008.18
2016-06-10T11:11:05.671Z,1008.2
2016-06-10T11:12:05.751Z,1008.16
2016-06-10T11:13:05.693Z,1008.17
2016-06-10T11:14:05.695Z,1008.16
2016-06-10T11:15:05.714Z,1008.15
2016-06-10T11:16:05.702Z,1008.18
2016-06-10T11:17:05.721Z,1008.14
2016-06-10T11:18:05.724Z,1008.19
2016-06-10T11:19:05.727Z,1008.17
2016-06-10T11:20:05.745Z,1008.21
2016-06-10T11:21:05.749Z,1008.2
2016-06-10T11:22:05.752Z,1008.23
2016-06-10T11:23:05.770Z,1008.24
2016-06-10T11:24:05.774Z,1008.18
2016-06-10T11:25:05.776Z,1008.16
2016-06-10T11:26:05.795Z,1008.15
2016-06-10T11:27:06.298Z,1008.16
2016-06-10T11:28:06.536Z,1008.12
2016-06-10T11:29:05.820Z,1008.14
2016-06-10T11:30:05.822Z,1008.12
2016-06-10T11:31:05.826Z,1008.13
2016-06-10T11:32:05.829Z,1008.13
2016-06-10T11:33:05.848Z,1008.12
2016-06-10T11:34:05.851Z,1008.14
2016-06-10T11:35:05.854Z,1008.14
2016-06-10T11:36:05.872Z,1008.15
2016-06-10T11:37:05.875Z,1008.16
2016-06-10T11:38:05.878Z,1008.17
2016-06-10T11:39:05.898Z,1008.12
2016-06-10T11:40:05.901Z,1008.1
2016-06-10T11:41:05.903Z,1008.07
2016-06-10T11:42:05.906Z,1008.08
2016-06-10T11:43:05.926Z,1008.08
2016-06-10T11:44:05.944Z,1008.07
2016-06-10T11:45:05.986Z,1008.08
2016-06-10T11:46:06.043Z,1008.02
2016-06-10T11:47:06.086Z,1008.05
2016-06-10T11:48:06.128Z,1008.08
2016-06-10T11:49:06.176Z,1008.05
2016-06-10T11:50:06.194Z,1008.02
2016-06-10T11:51:06.211Z,1008.07
2016-06-10T11:52:06.244Z,1008.03
2016-06-10T11:53:06.261Z,1007.99
2016-06-10T11:54:06.274Z,1008
2016-06-10T11:55:06.282Z,1007.95
2016-06-10T11:56:06.306Z,1007.97
2016-06-10T11:57:06.315Z,1007.99
2016-06-10T11:58:06.323Z,1007.97
2016-06-10T11:59:06.346Z,1007.98
2016-06-10T12:00:06.350Z,1008.02
2016-06-10T12:01:06.370Z,1007.97
2016-06-10T12:02:06.376Z,1007.9
2016-06-10T12:03:06.381Z,1007.9
2016-06-10T12:04:06.385Z,1007.9
2016-06-10T12:05:06.404Z,1007.95
2016-06-10T12:06:06.408Z,1007.93
2016-06-10T12:07:06.411Z,1007.93
2016-06-10T12:08:06.431Z,1007.91